Time;durP1;ratioP1;P1;durP2;ratioP2;P2;SDS_P1;SDS_P2;PMS_P1;PMS_P2;Temp;Humidity;BMP_temperature;BMP_pressure;BME280_temperature;BME280_humidity;BME280_pressure;Samples;Min_cycle;Max_cycle;Signal;HPM_P1;HPM_P2
2021/01/12 00:00:10;;;;;;;;;;;-3.40;99.90;;;;;;5069371;28;19916;-70
2021/01/12 00:02:35;;;;;;;;;;;-3.40;99.90;;;;;;5069001;28;19930;-69
2021/01/12 00:05:01;;;;;;;;;;;-3.40;99.90;;;;;;5068329;28;20079;-69
2021/01/12 00:07:26;;;;;;;;;;;-3.50;99.90;;;;;;5068909;28;19915;-69
2021/01/12 00:09:52;;;;;;;;;;;-3.40;99.90;;;;;;5068560;28;19943;-70
2021/01/12 00:12:18;;;;;;;;;;;-3.40;99.90;;;;;;5061647;28;19917;-68
2021/01/12 00:14:44;;;;;;;;;;;-3.40;99.90;;;;;;5048998;28;19967;-71
2021/01/12 00:17:09;;;;;;;;;;;-3.40;99.90;;;;;;5049071;28;19952;-70
2021/01/12 00:19:35;;;;;;;;;;;-3.50;99.90;;;;;;5049111;28;19916;-69
2021/01/12 00:22:04;;;;;;;;;;;-3.50;99.90;;;;;;5048410;28;19995;-70
2021/01/12 00:24:30;;;;;;;;;;;-3.50;99.90;;;;;;5051395;28;20365;-70
2021/01/12 00:26:55;;;;;;;;;;;-3.40;99.90;;;;;;5052882;28;19969;-70
2021/01/12 00:29:21;;;;;;;;;;;-3.40;99.90;;;;;;5053286;28;20388;-69
2021/01/12 00:31:46;;;;;;;;;;;-3.40;99.90;;;;;;5053343;28;19963;-69
2021/01/12 00:34:12;;;;;;;;;;;-3.40;99.90;;;;;;5052377;28;20381;-71
2021/01/12 00:36:38;;;;;;;;;;;-3.30;99.90;;;;;;5053302;28;19913;-70
2021/01/12 00:39:04;;;;;;;;;;;-3.40;99.90;;;;;;5051676;28;19932;-71
2021/01/12 00:41:30;;;;;;;;;;;-3.40;99.90;;;;;;5055280;28;19909;-70
2021/01/12 00:43:55;;;;;;;;;;;-3.40;99.90;;;;;;5072270;28;20008;-69
2021/01/12 00:46:21;;;;;;;;;;;-3.30;99.90;;;;;;5073254;28;19908;-69
2021/01/12 00:48:46;;;;;;;;;;;-3.40;99.90;;;;;;5073535;28;19912;-69
2021/01/12 00:51:12;;;;;;;;;;;-3.30;99.90;;;;;;5072383;28;20015;-71
2021/01/12 00:53:37;;;;;;;;;;;-3.30;99.90;;;;;;5071255;28;19919;-70
2021/01/12 00:56:15;;;;;;;;;;;-3.40;99.90;;;;;;5073288;28;19922;-70
2021/01/12 00:58:41;;;;;;;;;;;-3.40;99.90;;;;;;5072202;28;19923;-70
2021/01/12 01:01:06;;;;;;;;;;;-3.40;99.90;;;;;;5072543;28;19913;-70
2021/01/12 01:03:32;;;;;;;;;;;-3.40;99.90;;;;;;5071877;28;19931;-70
2021/01/12 01:05:58;;;;;;;;;;;-3.40;99.90;;;;;;5072169;28;19955;-70
2021/01/12 01:08:24;;;;;;;;;;;-3.40;99.90;;;;;;5072022;28;20456;-70
2021/01/12 01:10:49;;;;;;;;;;;-3.30;99.90;;;;;;5072268;28;19938;-69
2021/01/12 01:13:15;;;;;;;;;;;-3.30;99.90;;;;;;5056030;28;20286;-71
2021/01/12 01:15:40;;;;;;;;;;;-3.10;99.90;;;;;;5052474;28;19908;-69
2021/01/12 01:18:06;;;;;;;;;;;-3.00;99.90;;;;;;5052491;28;20361;-69
2021/01/12 01:20:31;;;;;;;;;;;-2.90;99.90;;;;;;5052002;28;19962;-67
2021/01/12 01:22:57;;;;;;;;;;;-2.90;99.90;;;;;;5050898;28;19916;-69
2021/01/12 01:25:22;;;;;;;;;;;-2.90;99.90;;;;;;5051456;28;19942;-71
2021/01/12 01:27:48;;;;;;;;;;;-2.90;99.90;;;;;;5051787;28;20381;-69
2021/01/12 01:30:13;;;;;;;;;;;-2.90;99.90;;;;;;5052141;28;19971;-68
2021/01/12 01:32:39;;;;;;;;;;;-3.00;99.90;;;;;;5051584;28;20341;-70
2021/01/12 01:35:05;;;;;;;;;;;-3.10;99.90;;;;;;5050857;28;20281;-70
2021/01/12 01:37:34;;;;;;;;;;;-3.20;99.90;;;;;;5051769;28;19916;-70
2021/01/12 01:39:59;;;;;;;;;;;-3.30;99.90;;;;;;5051204;28;19916;-70
2021/01/12 01:42:25;;;;;;;;;;;-3.40;99.90;;;;;;5058752;28;20265;-71
2021/01/12 01:44:50;;;;;;;;;;;-3.40;99.90;;;;;;5071718;28;20023;-69
2021/01/12 01:47:16;;;;;;;;;;;-3.50;99.90;;;;;;5071656;28;19931;-68
2021/01/12 01:49:41;;;;;;;;;;;-3.50;99.90;;;;;;5071089;28;19908;-69
2021/01/12 01:52:07;;;;;;;;;;;-3.50;99.90;;;;;;5071093;28;19917;-70
2021/01/12 01:54:32;;;;;;;;;;;-3.50;99.90;;;;;;5070535;28;20199;-69
2021/01/12 01:56:59;;;;;;;;;;;-3.50;99.90;;;;;;5070888;28;20379;-70
2021/01/12 01:59:25;;;;;;;;;;;-3.40;99.90;;;;;;5071579;28;19913;-69
2021/01/12 02:01:50;;;;;;;;;;;-3.40;99.90;;;;;;5071378;28;20026;-68
2021/01/12 02:04:27;;;;;;;;;;;-3.40;99.90;;;;;;5070701;28;19916;-70
2021/01/12 02:06:53;;;;;;;;;;;-3.30;99.90;;;;;;5071725;28;19908;-69
2021/01/12 02:09:21;;;;;;;;;;;-3.30;99.90;;;;;;5070423;28;19930;-69
2021/01/12 02:11:53;;;;;;;;;;;-3.30;99.90;;;;;;5068052;28;19943;-68
2021/01/12 02:14:20;;;;;;;;;;;-3.20;99.90;;;;;;5050837;28;19908;-70
2021/01/12 02:16:46;;;;;;;;;;;-3.30;99.90;;;;;;5051273;28;19991;-70
2021/01/12 02:19:16;;;;;;;;;;;-3.30;99.90;;;;;;5050321;28;19913;-70
2021/01/12 02:21:49;;;;;;;;;;;-3.30;99.90;;;;;;5051146;28;20004;-71
2021/01/12 02:24:15;;;;;;;;;;;-3.40;99.90;;;;;;5049330;28;19986;-70
2021/01/12 02:26:40;;;;;;;;;;;-3.40;99.90;;;;;;5051421;28;19923;-71
2021/01/12 02:29:06;;;;;;;;;;;-3.50;99.90;;;;;;5050369;28;20007;-69
2021/01/12 02:31:32;;;;;;;;;;;-3.50;99.90;;;;;;5051132;28;19935;-69
2021/01/12 02:34:00;;;;;;;;;;;-3.40;99.90;;;;;;5049356;28;19920;-70
2021/01/12 02:36:26;;;;;;;;;;;-3.50;99.90;;;;;;5050722;28;20030;-69
2021/01/12 02:38:52;;;;;;;;;;;-3.40;99.90;;;;;;5049462;28;19963;-70
2021/01/12 02:41:17;;;;;;;;;;;-3.40;99.90;;;;;;5050689;28;19940;-69
2021/01/12 02:43:43;;;;;;;;;;;-3.40;99.90;;;;;;5068265;28;19913;-69
2021/01/12 02:46:10;;;;;;;;;;;-3.30;99.90;;;;;;5070108;28;19991;-69
2021/01/12 02:48:35;;;;;;;;;;;-3.30;99.90;;;;;;5070144;28;19958;-69
2021/01/12 02:51:01;;;;;;;;;;;-3.30;99.90;;;;;;5069790;28;20309;-68
2021/01/12 02:53:26;;;;;;;;;;;-3.30;99.90;;;;;;5069168;28;19913;-70
2021/01/12 02:55:52;;;;;;;;;;;-3.30;99.90;;;;;;5070153;28;19913;-69
2021/01/12 02:58:17;;;;;;;;;;;-3.30;99.90;;;;;;5070153;28;19909;-69
2021/01/12 03:00:44;;;;;;;;;;;-3.30;99.90;;;;;;5070448;28;19919;-69
2021/01/12 03:03:10;;;;;;;;;;;-3.30;99.90;;;;;;5069048;28;19912;-69
2021/01/12 03:05:35;;;;;;;;;;;-3.30;99.90;;;;;;5069233;28;20281;-69
2021/01/12 03:08:01;;;;;;;;;;;-3.30;99.90;;;;;;5070104;28;19963;-69
2021/01/12 03:10:26;;;;;;;;;;;-3.40;99.90;;;;;;5069394;28;20497;-71
2021/01/12 03:12:52;;;;;;;;;;;-3.40;99.90;;;;;;5058035;28;20074;-68
2021/01/12 03:15:17;;;;;;;;;;;-3.30;99.90;;;;;;5049483;28;19909;-69
2021/01/12 03:17:43;;;;;;;;;;;-3.30;99.90;;;;;;5049187;28;19958;-69
2021/01/12 03:20:09;;;;;;;;;;;-3.30;99.90;;;;;;5048522;28;20274;-69
2021/01/12 03:22:34;;;;;;;;;;;-3.30;99.90;;;;;;5049003;28;19923;-67
2021/01/12 03:25:00;;;;;;;;;;;-3.20;99.90;;;;;;5048694;28;19909;-69
2021/01/12 03:27:25;;;;;;;;;;;-3.30;99.90;;;;;;5049639;28;20337;-68
2021/01/12 03:29:51;;;;;;;;;;;-3.20;99.90;;;;;;5049664;28;19913;-68
2021/01/12 03:32:16;;;;;;;;;;;-3.20;99.90;;;;;;5049179;28;19974;-66
2021/01/12 03:34:42;;;;;;;;;;;-3.20;99.90;;;;;;5048651;28;19916;-69
2021/01/12 03:37:07;;;;;;;;;;;-3.20;99.90;;;;;;5048902;28;19912;-68
2021/01/12 03:39:33;;;;;;;;;;;-3.10;99.90;;;;;;5048616;28;19932;-68
2021/01/12 03:41:58;;;;;;;;;;;-3.10;99.90;;;;;;5052859;28;19939;-67
2021/01/12 03:44:24;;;;;;;;;;;-3.10;99.90;;;;;;5068650;28;19973;-68
2021/01/12 03:46:50;;;;;;;;;;;-3.10;99.90;;;;;;5069084;28;19912;-70
2021/01/12 03:49:15;;;;;;;;;;;-3.10;99.90;;;;;;5068475;28;19912;-68
2021/01/12 03:51:41;;;;;;;;;;;-3.10;99.90;;;;;;5069230;28;19912;-68
2021/01/12 03:54:06;;;;;;;;;;;-3.10;99.90;;;;;;5065786;28;19909;-68
2021/01/12 03:56:32;;;;;;;;;;;-3.10;99.90;;;;;;5069346;28;19978;-68
2021/01/12 03:58:57;;;;;;;;;;;-3.00;99.90;;;;;;5067638;28;20338;-67
2021/01/12 04:01:23;;;;;;;;;;;-3.00;99.90;;;;;;5069047;28;19912;-68
2021/01/12 04:03:48;;;;;;;;;;;-3.00;99.90;;;;;;5067928;28;19947;-67
2021/01/12 04:06:15;;;;;;;;;;;-3.00;99.90;;;;;;5068642;28;19919;-68
2021/01/12 04:08:44;;;;;;;;;;;-2.90;99.90;;;;;;5068373;28;19908;-68
2021/01/12 04:11:11;;;;;;;;;;;-2.90;99.90;;;;;;5068977;28;20284;-68
2021/01/12 04:13:36;;;;;;;;;;;-2.90;99.90;;;;;;5050019;28;19921;-69
2021/01/12 04:16:02;;;;;;;;;;;-2.80;99.90;;;;;;5048822;28;20460;-68
2021/01/12 04:18:28;;;;;;;;;;;-2.80;99.90;;;;;;5048614;28;19939;-69
2021/01/12 04:20:53;;;;;;;;;;;-2.70;99.90;;;;;;5048602;28;19909;-69
2021/01/12 04:23:19;;;;;;;;;;;-2.60;99.90;;;;;;5047506;28;19909;-68
2021/01/12 04:25:44;;;;;;;;;;;-2.60;99.90;;;;;;5048247;28;19915;-69
2021/01/12 04:28:10;;;;;;;;;;;-2.50;99.90;;;;;;5048519;28;20430;-69
2021/01/12 04:30:35;;;;;;;;;;;-2.40;99.90;;;;;;5049002;28;19909;-68
2021/01/12 04:33:01;;;;;;;;;;;-2.40;99.90;;;;;;5047467;28;20272;-69
2021/01/12 04:35:28;;;;;;;;;;;-2.30;99.90;;;;;;5048455;28;20058;-69
2021/01/12 04:37:54;;;;;;;;;;;-2.30;99.90;;;;;;5048669;28;20349;-68
2021/01/12 04:40:20;;;;;;;;;;;-2.30;99.90;;;;;;5047849;28;19908;-67
2021/01/12 04:42:45;;;;;;;;;;;-2.40;99.90;;;;;;5058665;28;19908;-68
2021/01/12 04:45:11;;;;;;;;;;;-2.30;99.90;;;;;;5067884;28;19919;-68
2021/01/12 04:47:36;;;;;;;;;;;-2.30;99.90;;;;;;5068680;28;20357;-67
2021/01/12 04:50:05;;;;;;;;;;;-2.40;99.90;;;;;;5068125;28;19935;-68
2021/01/12 04:52:43;;;;;;;;;;;-2.50;99.90;;;;;;5067781;28;19912;-68
2021/01/12 04:55:09;;;;;;;;;;;-2.50;99.90;;;;;;5067479;28;19916;-69
2021/01/12 04:57:34;;;;;;;;;;;-2.50;99.90;;;;;;5068629;28;19909;-68
2021/01/12 05:00:00;;;;;;;;;;;-2.50;99.90;;;;;;5068727;28;19912;-67
2021/01/12 05:02:25;;;;;;;;;;;-2.50;99.90;;;;;;5068281;28;20012;-68
2021/01/12 05:04:51;;;;;;;;;;;-2.50;99.90;;;;;;5067734;28;20007;-69
2021/01/12 05:07:16;;;;;;;;;;;-2.50;99.90;;;;;;5068539;28;19912;-67
2021/01/12 05:09:43;;;;;;;;;;;-2.50;99.90;;;;;;5069754;28;19984;-68
2021/01/12 05:12:12;;;;;;;;;;;-2.50;99.90;;;;;;5065951;28;19923;-67
2021/01/12 05:14:38;;;;;;;;;;;-2.50;99.90;;;;;;5044112;28;19924;-68
2021/01/12 05:17:03;;;;;;;;;;;-2.50;99.90;;;;;;5031528;28;19913;-67
2021/01/12 05:19:30;;;;;;;;;;;-2.40;99.90;;;;;;5028871;28;20235;-68
2021/01/12 05:21:59;;;;;;;;;;;-2.40;99.90;;;;;;5030353;28;19913;-69
2021/01/12 05:24:25;;;;;;;;;;;-2.40;99.90;;;;;;5029320;28;19963;-67
2021/01/12 05:26:50;;;;;;;;;;;-2.40;99.90;;;;;;5032334;28;20223;-68
2021/01/12 05:29:16;;;;;;;;;;;-2.40;99.90;;;;;;5031570;28;19920;-68
2021/01/12 05:31:46;;;;;;;;;;;-2.30;99.90;;;;;;5031925;28;19974;-69
2021/01/12 05:34:11;;;;;;;;;;;-2.30;99.90;;;;;;5031046;28;20604;-67
2021/01/12 05:36:50;;;;;;;;;;;-2.20;99.90;;;;;;5032221;28;19956;-68
2021/01/12 05:39:19;;;;;;;;;;;-2.20;99.90;;;;;;5036847;28;20423;-68
2021/01/12 05:41:46;;;;;;;;;;;-2.20;99.90;;;;;;5043008;28;19909;-68
2021/01/12 05:44:19;;;;;;;;;;;-2.20;99.90;;;;;;5061766;28;20508;-68
2021/01/12 05:46:45;;;;;;;;;;;-2.10;99.90;;;;;;5055411;28;20360;-68
2021/01/12 05:49:11;;;;;;;;;;;-2.10;99.90;;;;;;5062893;28;19940;-67
2021/01/12 05:51:46;;;;;;;;;;;-2.00;99.90;;;;;;5062315;28;20033;-67
2021/01/12 05:54:27;;;;;;;;;;;-2.00;99.90;;;;;;5059010;28;20008;-68
2021/01/12 05:56:55;;;;;;;;;;;-2.00;99.90;;;;;;5057217;28;19912;-70
2021/01/12 05:59:24;;;;;;;;;;;-2.00;99.90;;;;;;5060744;28;19908;-69
2021/01/12 06:01:54;;;;;;;;;;;-1.90;99.90;;;;;;5061959;28;19908;-71
2021/01/12 06:04:20;;;;;;;;;;;-1.90;99.90;;;;;;5060610;28;19909;-70
2021/01/12 06:06:47;;;;;;;;;;;-1.90;99.90;;;;;;5060763;28;20376;-68
2021/01/12 06:09:13;;;;;;;;;;;-1.90;99.90;;;;;;5060504;28;20002;-67
2021/01/12 06:11:41;;;;;;;;;;;-1.80;99.90;;;;;;5061296;28;20026;-68
2021/01/12 06:14:10;;;;;;;;;;;-1.80;99.90;;;;;;5062654;28;19920;-69
2021/01/12 06:16:36;;;;;;;;;;;-1.70;99.90;;;;;;5060610;28;19912;-67
2021/01/12 06:19:11;;;;;;;;;;;-1.70;99.90;;;;;;5053931;28;19908;-69
2021/01/12 06:21:48;;;;;;;;;;;-1.70;99.90;;;;;;5055208;28;20011;-69
2021/01/12 06:24:18;;;;;;;;;;;-1.60;99.90;;;;;;5060602;28;19925;-69
2021/01/12 06:26:44;;;;;;;;;;;-1.60;99.90;;;;;;5057030;28;19917;-68
2021/01/12 06:29:09;;;;;;;;;;;-1.50;99.90;;;;;;5070211;28;19920;-69
2021/01/12 06:31:45;;;;;;;;;;;-1.50;99.90;;;;;;5064438;28;20257;-69
2021/01/12 06:34:15;;;;;;;;;;;-1.50;99.90;;;;;;5057234;28;19939;-69
2021/01/12 06:36:42;;;;;;;;;;;-1.50;99.90;;;;;;5056445;28;19912;-68
2021/01/12 06:39:11;;;;;;;;;;;-1.50;99.90;;;;;;5057722;28;19917;-68
2021/01/12 06:41:37;;;;;;;;;;;-1.50;99.90;;;;;;5052781;28;19913;-69
2021/01/12 06:44:06;;;;;;;;;;;-1.50;99.90;;;;;;5068483;28;19927;-68
2021/01/12 06:46:33;;;;;;;;;;;-1.50;99.90;;;;;;5056996;28;19924;-69
2021/01/12 06:49:00;;;;;;;;;;;-1.40;99.90;;;;;;5056760;28;19913;-69
2021/01/12 06:51:34;;;;;;;;;;;-1.40;99.90;;;;;;5071064;28;19962;-68
2021/01/12 06:54:01;;;;;;;;;;;-1.40;99.90;;;;;;5053600;28;19936;-68
2021/01/12 06:56:32;;;;;;;;;;;-1.40;99.90;;;;;;5059153;28;19983;-68
2021/01/12 06:58:58;;;;;;;;;;;-1.30;99.90;;;;;;5065167;28;19920;-69
2021/01/12 07:01:26;;;;;;;;;;;-1.30;99.90;;;;;;5060268;28;19927;-69
2021/01/12 07:03:52;;;;;;;;;;;-1.30;99.90;;;;;;5068032;28;19912;-69
2021/01/12 07:06:24;;;;;;;;;;;-1.30;99.90;;;;;;5064576;28;20012;-69
2021/01/12 07:08:50;;;;;;;;;;;-1.30;99.90;;;;;;5052831;28;20372;-69
2021/01/12 07:11:19;;;;;;;;;;;-1.20;99.90;;;;;;5061513;28;20053;-69
2021/01/12 07:13:45;;;;;;;;;;;-1.20;99.90;;;;;;5060981;28;19946;-69
2021/01/12 07:16:14;;;;;;;;;;;-1.20;99.90;;;;;;5058585;28;20123;-69
2021/01/12 07:18:40;;;;;;;;;;;-1.10;99.90;;;;;;5062117;28;19943;-66
2021/01/12 07:21:13;;;;;;;;;;;-1.10;99.90;;;;;;5055005;28;20030;-67
2021/01/12 07:23:39;;;;;;;;;;;-1.10;99.90;;;;;;5052921;28;19909;-69
2021/01/12 07:26:05;;;;;;;;;;;-1.10;99.90;;;;;;5050952;28;19916;-68
2021/01/12 07:28:31;;;;;;;;;;;-1.10;99.90;;;;;;5052363;28;19909;-70
2021/01/12 07:30:57;;;;;;;;;;;-1.10;99.90;;;;;;5054162;28;19913;-68
2021/01/12 07:33:24;;;;;;;;;;;-1.20;99.90;;;;;;5057038;28;20010;-68
2021/01/12 07:35:53;;;;;;;;;;;-1.10;99.90;;;;;;5073157;28;19913;-68
2021/01/12 07:38:20;;;;;;;;;;;-1.10;99.90;;;;;;5064149;28;19963;-68
2021/01/12 07:40:46;;;;;;;;;;;-1.00;99.90;;;;;;5066596;28;20320;-69
2021/01/12 07:43:15;;;;;;;;;;;-0.90;99.90;;;;;;5056920;28;19913;-68
2021/01/12 07:45:41;;;;;;;;;;;-0.90;99.90;;;;;;5067955;28;19912;-67
2021/01/12 07:48:07;;;;;;;;;;;-0.80;99.90;;;;;;5066849;28;19965;-67
2021/01/12 07:50:32;;;;;;;;;;;-0.80;99.90;;;;;;5051805;28;20277;-67
2021/01/12 07:52:58;;;;;;;;;;;-0.80;99.90;;;;;;5050352;28;19917;-69
2021/01/12 07:55:24;;;;;;;;;;;-0.80;99.90;;;;;;5053742;28;19927;-67
2021/01/12 07:57:50;;;;;;;;;;;-0.80;99.90;;;;;;5069835;28;20285;-68
2021/01/12 08:00:16;;;;;;;;;;;-0.90;99.90;;;;;;5066066;28;19913;-69
2021/01/12 08:02:43;;;;;;;;;;;-0.90;99.90;;;;;;5056822;28;19916;-68
2021/01/12 08:05:09;;;;;;;;;;;-0.90;99.90;;;;;;5057943;28;19923;-68
2021/01/12 08:07:35;;;;;;;;;;;-0.90;99.90;;;;;;5068332;28;19982;-68
2021/01/12 08:10:01;;;;;;;;;;;-0.90;99.90;;;;;;5044265;28;19916;-67
2021/01/12 08:12:26;;;;;;;;;;;-0.90;99.90;;;;;;5058307;28;19956;-67
2021/01/12 08:14:53;;;;;;;;;;;-0.90;99.90;;;;;;5055076;28;19917;-68
2021/01/12 08:17:19;;;;;;;;;;;-0.90;99.90;;;;;;5060759;28;19913;-68
2021/01/12 08:19:45;;;;;;;;;;;-0.90;99.90;;;;;;5062628;28;20237;-68
2021/01/12 08:22:16;;;;;;;;;;;-0.80;99.90;;;;;;5060366;28;20035;-69
2021/01/12 08:24:42;;;;;;;;;;;-0.80;99.90;;;;;;5060414;28;19992;-68
2021/01/12 08:27:08;;;;;;;;;;;-0.70;99.90;;;;;;5050445;28;20358;-70
2021/01/12 08:29:34;;;;;;;;;;;-0.70;99.90;;;;;;5069192;28;19975;-68
2021/01/12 08:32:04;;;;;;;;;;;-0.70;99.90;;;;;;5060406;28;19920;-67
2021/01/12 08:34:32;;;;;;;;;;;-0.70;99.90;;;;;;5063384;28;19916;-68
2021/01/12 08:37:01;;;;;;;;;;;-0.70;99.90;;;;;;5057751;28;19919;-68
2021/01/12 08:39:29;;;;;;;;;;;-0.70;99.90;;;;;;5064428;28;19916;-68
2021/01/12 08:41:55;;;;;;;;;;;-0.60;99.90;;;;;;5069464;28;20322;-67
2021/01/12 08:44:22;;;;;;;;;;;-0.60;99.90;;;;;;5064031;28;19913;-69
2021/01/12 08:46:48;;;;;;;;;;;-0.60;99.90;;;;;;5065472;28;19916;-68
2021/01/12 08:49:13;;;;;;;;;;;-0.60;99.90;;;;;;5060662;28;20159;-68
2021/01/12 08:51:40;;;;;;;;;;;-0.60;99.90;;;;;;5055954;28;19946;-66
2021/01/12 08:54:07;;;;;;;;;;;-0.60;99.90;;;;;;5056956;28;20292;-69
2021/01/12 08:56:32;;;;;;;;;;;-0.60;99.90;;;;;;5072511;28;19920;-69
2021/01/12 08:59:07;;;;;;;;;;;-0.50;99.90;;;;;;5062439;28;19917;-69
2021/01/12 09:01:34;;;;;;;;;;;-0.50;99.90;;;;;;5067273;28;19980;-69
2021/01/12 09:04:03;;;;;;;;;;;-0.50;99.90;;;;;;5052528;28;20334;-69
2021/01/12 09:06:28;;;;;;;;;;;-0.40;99.90;;;;;;5060958;28;19917;-67
2021/01/12 09:09:03;;;;;;;;;;;-0.40;99.90;;;;;;5068449;28;19920;-69
2021/01/12 09:11:29;;;;;;;;;;;-0.40;99.90;;;;;;5068457;22;19904;-71
2021/01/12 09:13:55;;;;;;;;;;;-0.30;99.90;;;;;;5038197;28;20004;-72
2021/01/12 09:16:21;;;;;;;;;;;-0.30;99.90;;;;;;5042924;28;19984;-72
2021/01/12 09:18:46;;;;;;;;;;;-0.30;99.90;;;;;;5043130;28;19946;-72
2021/01/12 09:21:12;;;;;;;;;;;-0.20;99.90;;;;;;5046508;28;19917;-72
2021/01/12 09:23:37;;;;;;;;;;;-0.20;99.90;;;;;;5046966;28;19917;-72
2021/01/12 09:26:04;;;;;;;;;;;-0.20;99.90;;;;;;5051226;28;19944;-72
2021/01/12 09:28:35;;;;;;;;;;;-0.10;99.90;;;;;;5051152;28;20295;-72
2021/01/12 09:31:13;;;;;;;;;;;0.00;99.90;;;;;;5051463;28;19917;-73
2021/01/12 09:33:45;;;;;;;;;;;0.00;99.90;;;;;;5050618;28;19921;-72
2021/01/12 09:36:12;;;;;;;;;;;0.00;99.90;;;;;;5051331;28;19916;-73
2021/01/12 09:38:41;;;;;;;;;;;0.00;99.90;;;;;;5050226;28;19932;-71
2021/01/12 09:41:10;;;;;;;;;;;-0.10;99.90;;;;;;5050953;28;19924;-72
2021/01/12 09:43:37;;;;;;;;;;;0.00;99.90;;;;;;5055745;28;19913;-72
2021/01/12 09:46:03;;;;;;;;;;;-0.10;99.90;;;;;;5047463;28;20286;-71
2021/01/12 09:48:29;;;;;;;;;;;0.00;99.90;;;;;;5049382;28;19916;-73
2021/01/12 09:50:54;;;;;;;;;;;0.00;99.90;;;;;;5050179;28;20376;-70
2021/01/12 09:53:20;;;;;;;;;;;0.00;99.90;;;;;;5048965;28;20003;-71
2021/01/12 09:55:46;;;;;;;;;;;0.00;99.90;;;;;;5048958;28;19959;-71
2021/01/12 09:58:11;;;;;;;;;;;0.10;99.90;;;;;;5050064;28;20334;-71
2021/01/12 10:00:37;;;;;;;;;;;0.00;99.90;;;;;;5050803;28;19928;-71
2021/01/12 10:03:06;;;;;;;;;;;0.00;99.90;;;;;;5049378;28;19917;-71
2021/01/12 10:05:31;;;;;;;;;;;0.00;99.90;;;;;;5050176;28;19913;-71
2021/01/12 10:07:57;;;;;;;;;;;0.10;99.90;;;;;;5050160;28;19940;-71
2021/01/12 10:10:22;;;;;;;;;;;0.10;99.90;;;;;;5050252;28;19913;-71
2021/01/12 10:12:48;;;;;;;;;;;0.20;99.90;;;;;;5053529;28;19924;-70
2021/01/12 10:15:13;;;;;;;;;;;0.20;99.90;;;;;;5048840;28;19932;-71
2021/01/12 10:17:39;;;;;;;;;;;0.30;99.90;;;;;;5050540;28;19920;-71
2021/01/12 10:20:05;;;;;;;;;;;0.30;99.90;;;;;;5050401;28;19913;-71
2021/01/12 10:22:30;;;;;;;;;;;0.30;99.90;;;;;;5049734;28;19913;-71
2021/01/12 10:24:59;;;;;;;;;;;0.30;99.90;;;;;;5041605;28;19923;-69
2021/01/12 10:27:25;;;;;;;;;;;0.40;99.90;;;;;;5049418;28;19920;-71
2021/01/12 10:29:51;;;;;;;;;;;0.60;99.90;;;;;;5049134;28;19912;-71
2021/01/12 10:32:17;;;;;;;;;;;0.60;99.90;;;;;;5049828;28;20390;-71
2021/01/12 10:34:43;;;;;;;;;;;0.70;99.90;;;;;;5049603;28;19913;-71
2021/01/12 10:37:12;;;;;;;;;;;0.70;99.90;;;;;;5049102;28;20015;-71
2021/01/12 10:39:38;;;;;;;;;;;0.80;99.90;;;;;;5048370;28;20007;-71
2021/01/12 10:42:05;;;;;;;;;;;0.80;99.90;;;;;;5054379;28;20520;-71
2021/01/12 10:44:30;;;;;;;;;;;0.70;99.90;;;;;;5050692;28;20093;-71
2021/01/12 10:46:56;;;;;;;;;;;0.70;99.90;;;;;;5050132;28;19944;-71
2021/01/12 10:49:22;;;;;;;;;;;0.80;99.90;;;;;;5048722;28;19916;-71
2021/01/12 10:51:55;;;;;;;;;;;0.90;99.90;;;;;;5049306;28;19947;-69
2021/01/12 10:54:20;;;;;;;;;;;0.90;99.90;;;;;;5048447;28;19975;-71
2021/01/12 10:56:46;;;;;;;;;;;0.90;99.90;;;;;;5049826;28;19912;-71
2021/01/12 10:59:11;;;;;;;;;;;0.80;99.90;;;;;;5049457;28;19912;-70
2021/01/12 11:01:37;;;;;;;;;;;0.80;99.90;;;;;;5049094;28;19956;-71
2021/01/12 11:04:02;;;;;;;;;;;0.80;99.90;;;;;;5048152;28;20347;-71
2021/01/12 11:06:41;;;;;;;;;;;0.80;99.90;;;;;;5049092;28;20000;-71
2021/01/12 11:09:06;;;;;;;;;;;0.80;99.90;;;;;;5042929;28;19991;-72
2021/01/12 11:11:35;;;;;;;;;;;0.80;99.90;;;;;;5050095;28;20395;-72
2021/01/12 11:14:03;;;;;;;;;;;0.80;99.90;;;;;;5048391;28;19924;-72
2021/01/12 11:16:41;;;;;;;;;;;0.90;99.90;;;;;;5049515;28;19929;-72
2021/01/12 11:19:10;;;;;;;;;;;0.90;99.90;;;;;;5048969;28;19913;-72
2021/01/12 11:21:41;;;;;;;;;;;1.00;99.90;;;;;;5048744;28;19917;-73
2021/01/12 11:24:08;;;;;;;;;;;1.10;99.90;;;;;;5025403;28;19983;-71
2021/01/12 11:26:34;;;;;;;;;;;1.10;99.90;;;;;;5041082;28;19917;-72
2021/01/12 11:28:59;;;;;;;;;;;1.20;99.90;;;;;;5030899;28;21241;-71
2021/01/12 11:31:26;;;;;;;;;;;1.20;99.90;;;;;;5040411;28;19959;-72
2021/01/12 11:33:52;;;;;;;;;;;1.20;99.90;;;;;;5041516;28;20008;-73
2021/01/12 11:36:18;;;;;;;;;;;1.30;99.90;;;;;;5048987;28;20011;-73
2021/01/12 11:38:43;;;;;;;;;;;1.30;99.90;;;;;;5035774;28;20296;-73
2021/01/12 11:41:09;;;;;;;;;;;1.30;99.90;;;;;;5048164;28;20444;-73
2021/01/12 11:43:35;;;;;;;;;;;1.30;99.90;;;;;;5048443;28;20004;-71
2021/01/12 11:46:00;;;;;;;;;;;1.40;99.90;;;;;;5041653;28;20016;-71
2021/01/12 11:48:26;;;;;;;;;;;1.40;99.90;;;;;;5045383;28;20370;-71
2021/01/12 11:50:51;;;;;;;;;;;1.30;99.90;;;;;;5040484;28;19966;-70
2021/01/12 11:53:17;;;;;;;;;;;1.40;99.90;;;;;;5047460;28;19959;-70
2021/01/12 11:55:42;;;;;;;;;;;1.40;99.90;;;;;;5048742;28;19917;-70
2021/01/12 11:58:08;;;;;;;;;;;1.50;99.90;;;;;;5049010;28;20357;-69
2021/01/12 12:00:33;;;;;;;;;;;1.60;99.90;;;;;;5049196;28;20369;-71
2021/01/12 12:02:59;;;;;;;;;;;1.50;99.90;;;;;;5048159;28;19936;-70
2021/01/12 12:05:24;;;;;;;;;;;1.40;99.90;;;;;;5045992;28;20297;-70
2021/01/12 12:07:50;;;;;;;;;;;1.50;99.90;;;;;;5041485;28;19917;-70
2021/01/12 12:10:15;;;;;;;;;;;1.40;99.90;;;;;;5042418;28;20043;-70
2021/01/12 12:12:41;;;;;;;;;;;1.50;99.90;;;;;;5051932;28;19916;-70
2021/01/12 12:15:07;;;;;;;;;;;1.60;99.90;;;;;;5048052;28;20296;-71
2021/01/12 12:17:33;;;;;;;;;;;1.50;99.90;;;;;;5048665;28;20400;-71
2021/01/12 12:19:58;;;;;;;;;;;1.60;99.90;;;;;;5047839;28;20316;-71
2021/01/12 12:22:24;;;;;;;;;;;1.60;99.90;;;;;;5047560;28;20370;-72
2021/01/12 12:24:49;;;;;;;;;;;1.50;99.90;;;;;;5047471;28;19996;-72
2021/01/12 12:27:19;;;;;;;;;;;1.50;99.90;;;;;;5047026;28;20365;-71
2021/01/12 12:29:44;;;;;;;;;;;1.60;99.90;;;;;;5048757;28;19917;-72
2021/01/12 12:32:10;;;;;;;;;;;1.60;99.90;;;;;;5048496;28;19998;-72
2021/01/12 12:34:35;;;;;;;;;;;1.60;99.90;;;;;;5048062;28;20408;-71
2021/01/12 12:37:01;;;;;;;;;;;1.60;99.90;;;;;;5048529;28;19923;-72
2021/01/12 12:39:26;;;;;;;;;;;1.60;99.90;;;;;;5048063;28;19921;-72
2021/01/12 12:41:52;;;;;;;;;;;1.60;99.90;;;;;;5037684;28;19932;-73
2021/01/12 12:44:18;;;;;;;;;;;1.60;99.90;;;;;;5040396;28;19921;-72
2021/01/12 12:46:45;;;;;;;;;;;1.50;99.90;;;;;;5040157;28;19975;-72
2021/01/12 12:49:10;;;;;;;;;;;1.50;99.90;;;;;;5041502;28;19921;-72
2021/01/12 12:51:36;;;;;;;;;;;1.50;99.90;;;;;;5046264;28;19916;-72
2021/01/12 12:54:02;;;;;;;;;;;1.50;99.90;;;;;;5046050;28;20352;-72
2021/01/12 12:56:27;;;;;;;;;;;1.60;99.90;;;;;;5049068;28;19921;-72
2021/01/12 12:58:53;;;;;;;;;;;1.60;99.90;;;;;;5048909;28;19924;-72
2021/01/12 13:01:19;;;;;;;;;;;1.60;99.90;;;;;;5048647;28;20379;-72
2021/01/12 13:03:45;;;;;;;;;;;1.60;99.90;;;;;;5045365;28;19916;-72
2021/01/12 13:06:10;;;;;;;;;;;1.60;99.90;;;;;;5047799;28;20393;-72
2021/01/12 13:08:36;;;;;;;;;;;1.70;99.90;;;;;;5040716;28;19913;-72
2021/01/12 13:11:04;;;;;;;;;;;1.80;99.90;;;;;;5043398;28;19920;-72
2021/01/12 13:13:29;;;;;;;;;;;1.80;99.90;;;;;;5042925;28;19971;-72
2021/01/12 13:15:55;;;;;;;;;;;1.90;99.90;;;;;;5042258;28;19912;-74
2021/01/12 13:18:21;;;;;;;;;;;1.90;99.90;;;;;;5042244;28;19928;-73
2021/01/12 13:20:47;;;;;;;;;;;2.00;99.90;;;;;;5045751;28;19921;-72
2021/01/12 13:23:13;;;;;;;;;;;2.00;99.90;;;;;;5042576;28;19917;-73
2021/01/12 13:25:39;;;;;;;;;;;2.00;99.90;;;;;;5037273;28;19913;-73
2021/01/12 13:28:05;;;;;;;;;;;1.90;99.90;;;;;;5041867;28;19913;-73
2021/01/12 13:30:30;;;;;;;;;;;2.00;99.90;;;;;;5041816;28;19912;-72
2021/01/12 13:32:56;;;;;;;;;;;2.00;99.90;;;;;;5048514;28;19920;-72
2021/01/12 13:35:22;;;;;;;;;;;2.00;99.90;;;;;;5045254;28;19917;-72
2021/01/12 13:37:48;;;;;;;;;;;2.10;99.90;;;;;;5042685;28;20419;-72
2021/01/12 13:40:14;;;;;;;;;;;2.10;99.90;;;;;;5042711;28;19920;-72
2021/01/12 13:42:43;;;;;;;;;;;2.00;99.90;;;;;;5043947;28;19959;-73
2021/01/12 13:45:09;;;;;;;;;;;2.00;99.90;;;;;;5046543;28;20523;-72
2021/01/12 13:47:35;;;;;;;;;;;2.00;99.90;;;;;;5046908;28;19952;-73
2021/01/12 13:50:01;;;;;;;;;;;2.00;99.90;;;;;;5039003;28;19949;-73
2021/01/12 13:52:28;;;;;;;;;;;2.00;99.90;;;;;;5043174;28;20352;-72
2021/01/12 13:54:53;;;;;;;;;;;2.10;99.90;;;;;;5042167;28;20400;-72
2021/01/12 13:57:24;;;;;;;;;;;2.10;99.90;;;;;;5042683;28;19917;-72
2021/01/12 13:59:50;;;;;;;;;;;2.10;99.90;;;;;;5041209;28;20399;-72
2021/01/12 14:02:15;;;;;;;;;;;2.10;99.90;;;;;;5042325;28;19920;-72
2021/01/12 14:04:41;;;;;;;;;;;2.10;99.90;;;;;;5044390;28;20313;-72
2021/01/12 14:07:07;;;;;;;;;;;2.10;99.90;;;;;;5042329;28;19998;-72
2021/01/12 14:09:32;;;;;;;;;;;2.10;99.90;;;;;;5046115;28;19923;-72
2021/01/12 14:11:58;;;;;;;;;;;2.10;99.90;;;;;;5054283;28;19917;-72
2021/01/12 14:14:24;;;;;;;;;;;2.00;99.90;;;;;;5050392;28;19912;-72
2021/01/12 14:16:53;;;;;;;;;;;2.00;99.90;;;;;;5050740;28;19909;-71